LYBE/BEG METAR and TAF weather

Enter ICAO airport designator
Station Type Date Time Source
LYBE METAR 2017/04/25 04:30 UTC NOAA

LYBE 250430Z 16003KT CAVOK 11/02 Q1017 NOSIG


Station Type Date Time Source
LYBE Decoded METAR 2017/04/25 04:30 UTC NOAA

Beograd / Surcin, Serbia and Montenegro (LYBE) 44-49N 020-17E 99M
Apr 25, 2017 - 12:30 AM EDT / 2017.04.25 0430 UTC
Wind: from the SSE (160 degrees) at 3 MPH (3 KT):0
Visibility: greater than 7 mile(s):0
Temperature: 51 F (11 C)
Dew Point: 35 F (2 C)
Relative Humidity: 53%
Pressure (altimeter): 30.03 in. Hg (1017 hPa)
ob: LYBE 250430Z 16003KT CAVOK 11/02 Q1017 NOSIG
cycle: 4

Station Type Date Time Source
LYBE TAF 2017/04/24 18:21 UTC NOAA

TAF TAF LYBE 241700Z 2418/2518 13008KT CAVOK TX22/2513Z TN08/2504Z


Example: see airport list